sensor_id;sensor_type;location;lat;lon;timestamp;pressure;altitude;pressure_sealevel;temperature;humidity
79242;BME280;68670;48.720;9.118;2023-12-20T00:01:49;96894.56;;;4.67;92.64
79242;BME280;68670;48.720;9.118;2023-12-20T00:04:15;96878.31;;;4.74;92.43
79242;BME280;68670;48.720;9.118;2023-12-20T00:06:42;96876.00;;;4.71;92.63
79242;BME280;68670;48.720;9.118;2023-12-20T00:09:08;96878.53;;;4.72;92.70
79242;BME280;68670;48.720;9.118;2023-12-20T00:11:33;96874.75;;;4.73;92.51
79242;BME280;68670;48.720;9.118;2023-12-20T00:13:58;96878.09;;;4.76;92.57
79242;BME280;68670;48.720;9.118;2023-12-20T00:16:26;96879.38;;;4.80;92.49
79242;BME280;68670;48.720;9.118;2023-12-20T00:18:55;96881.03;;;4.81;92.79
79242;BME280;68670;48.720;9.118;2023-12-20T00:21:22;96874.78;;;4.80;92.56
79242;BME280;68670;48.720;9.118;2023-12-20T00:23:50;96866.84;;;4.79;93.13
79242;BME280;68670;48.720;9.118;2023-12-20T00:26:15;96860.38;;;4.80;93.21
79242;BME280;68670;48.720;9.118;2023-12-20T00:28:42;96865.19;;;4.78;93.74
79242;BME280;68670;48.720;9.118;2023-12-20T00:31:08;96853.91;;;4.74;93.53
79242;BME280;68670;48.720;9.118;2023-12-20T00:33:33;96851.38;;;4.72;95.05
79242;BME280;68670;48.720;9.118;2023-12-20T00:36:01;96853.06;;;4.67;95.68
79242;BME280;68670;48.720;9.118;2023-12-20T00:38:26;96859.31;;;4.67;96.55
79242;BME280;68670;48.720;9.118;2023-12-20T00:40:54;96860.97;;;4.62;98.23
79242;BME280;68670;48.720;9.118;2023-12-20T00:43:21;96867.63;;;4.59;98.02
79242;BME280;68670;48.720;9.118;2023-12-20T00:45:46;96854.72;;;4.55;98.84
79242;BME280;68670;48.720;9.118;2023-12-20T00:48:12;96858.88;;;4.51;100.00
79242;BME280;68670;48.720;9.118;2023-12-20T00:50:37;96848.84;;;4.45;100.00
79242;BME280;68670;48.720;9.118;2023-12-20T00:53:05;96844.69;;;4.42;100.00
79242;BME280;68670;48.720;9.118;2023-12-20T00:55:30;96845.50;;;4.36;100.00
79242;BME280;68670;48.720;9.118;2023-12-20T00:57:58;96835.88;;;4.33;100.00
79242;BME280;68670;48.720;9.118;2023-12-20T01:00:25;96843.19;;;4.33;100.00
79242;BME280;68670;48.720;9.118;2023-12-20T01:02:50;96844.22;;;4.25;100.00
79242;BME280;68670;48.720;9.118;2023-12-20T01:05:18;96852.97;;;4.21;100.00
79242;BME280;68670;48.720;9.118;2023-12-20T01:07:44;96856.28;;;4.23;100.00
79242;BME280;68670;48.720;9.118;2023-12-20T01:10:09;96851.09;;;4.21;100.00
79242;BME280;68670;48.720;9.118;2023-12-20T01:12:37;96855.47;;;4.16;100.00
79242;BME280;68670;48.720;9.118;2023-12-20T01:15:02;96858.16;;;4.16;100.00
79242;BME280;68670;48.720;9.118;2023-12-20T01:17:28;96857.53;;;4.14;100.00
79242;BME280;68670;48.720;9.118;2023-12-20T01:19:53;96861.47;;;4.11;100.00
79242;BME280;68670;48.720;9.118;2023-12-20T01:22:19;96866.28;;;4.09;100.00
79242;BME280;68670;48.720;9.118;2023-12-20T01:24:51;96859.19;;;4.08;100.00
79242;BME280;68670;48.720;9.118;2023-12-20T01:27:16;96856.66;;;4.07;100.00
79242;BME280;68670;48.720;9.118;2023-12-20T01:29:44;96848.94;;;4.03;100.00
79242;BME280;68670;48.720;9.118;2023-12-20T01:32:09;96855.41;;;4.02;100.00
79242;BME280;68670;48.720;9.118;2023-12-20T01:34:37;96867.06;;;4.03;100.00
79242;BME280;68670;48.720;9.118;2023-12-20T01:37:05;96859.16;;;4.01;100.00
79242;BME280;68670;48.720;9.118;2023-12-20T01:39:30;96860.19;;;4.00;100.00
79242;BME280;68670;48.720;9.118;2023-12-20T01:41:57;96859.56;;;3.98;100.00
79242;BME280;68670;48.720;9.118;2023-12-20T01:44:22;96864.56;;;4.01;100.00
79242;BME280;68670;48.720;9.118;2023-12-20T01:46:48;96868.31;;;4.00;100.00
79242;BME280;68670;48.720;9.118;2023-12-20T01:49:14;96858.72;;;3.98;100.00
79242;BME280;68670;48.720;9.118;2023-12-20T01:51:40;96868.53;;;4.05;100.00
79242;BME280;68670;48.720;9.118;2023-12-20T01:54:05;96867.09;;;4.10;100.00
79242;BME280;68670;48.720;9.118;2023-12-20T01:56:33;96871.25;;;4.05;100.00
79242;BME280;68670;48.720;9.118;2023-12-20T01:59:01;96853.56;;;4.10;100.00
79242;BME280;68670;48.720;9.118;2023-12-20T02:01:27;96856.66;;;4.07;100.00
79242;BME280;68670;48.720;9.118;2023-12-20T02:03:53;96853.38;;;4.18;100.00
79242;BME280;68670;48.720;9.118;2023-12-20T02:06:21;96860.88;;;4.16;100.00
79242;BME280;68670;48.720;9.118;2023-12-20T02:08:49;96854.22;;;4.18;100.00
79242;BME280;68670;48.720;9.118;2023-12-20T02:11:17;96859.22;;;4.21;100.00
79242;BME280;68670;48.720;9.118;2023-12-20T02:13:45;96850.88;;;4.16;100.00
79242;BME280;68670;48.720;9.118;2023-12-20T02:16:13;96857.13;;;4.17;100.00
79242;BME280;68670;48.720;9.118;2023-12-20T02:18:39;96854.66;;;4.22;100.00
79242;BME280;68670;48.720;9.118;2023-12-20T02:21:08;96857.13;;;4.17;100.00
79242;BME280;68670;48.720;9.118;2023-12-20T02:23:36;96854.41;;;4.17;100.00
79242;BME280;68670;48.720;9.118;2023-12-20T02:26:04;96849.00;;;4.17;100.00
79242;BME280;68670;48.720;9.118;2023-12-20T02:28:31;96855.06;;;4.19;100.00
79242;BME280;68670;48.720;9.118;2023-12-20T02:30:57;96857.34;;;4.22;100.00
79242;BME280;68670;48.720;9.118;2023-12-20T02:33:24;96845.88;;;4.20;100.00
79242;BME280;68670;48.720;9.118;2023-12-20T02:35:50;96848.78;;;4.18;100.00
79242;BME280;68670;48.720;9.118;2023-12-20T02:38:15;96848.59;;;4.20;100.00
79242;BME280;68670;48.720;9.118;2023-12-20T02:40:41;96857.56;;;4.20;100.00
79242;BME280;68670;48.720;9.118;2023-12-20T02:43:06;96850.03;;;4.16;100.00
79242;BME280;68670;48.720;9.118;2023-12-20T02:45:31;96855.06;;;4.19;100.00
79242;BME280;68670;48.720;9.118;2023-12-20T02:47:56;96855.47;;;4.16;100.00
79242;BME280;68670;48.720;9.118;2023-12-20T02:50:22;96857.97;;;4.24;100.00
79242;BME280;68670;48.720;9.118;2023-12-20T02:52:47;96857.13;;;4.17;100.00
79242;BME280;68670;48.720;9.118;2023-12-20T02:55:15;96853.78;;;4.15;100.00
79242;BME280;68670;48.720;9.118;2023-12-20T02:57:41;96856.28;;;4.10;100.00
79242;BME280;68670;48.720;9.118;2023-12-20T03:00:09;96859.63;;;4.12;100.00
79242;BME280;68670;48.720;9.118;2023-12-20T03:02:37;96872.13;;;4.13;100.00
79242;BME280;68670;48.720;9.118;2023-12-20T03:05:02;96858.97;;;4.10;100.00
79242;BME280;68670;48.720;9.118;2023-12-20T03:07:28;96865.03;;;4.12;100.00
79242;BME280;68670;48.720;9.118;2023-12-20T03:09:53;96861.69;;;4.10;100.00
79242;BME280;68670;48.720;9.118;2023-12-20T03:12:22;96862.09;;;4.07;100.00
79242;BME280;68670;48.720;9.118;2023-12-20T03:14:48;96877.31;;;4.08;100.00
79242;BME280;68670;48.720;9.118;2023-12-20T03:17:16;96867.09;;;4.10;100.00
79242;BME280;68670;48.720;9.118;2023-12-20T03:19:41;96881.69;;;4.09;100.00
79242;BME280;68670;48.720;9.118;2023-12-20T03:22:07;96873.34;;;4.03;100.00
79242;BME280;68670;48.720;9.118;2023-12-20T03:24:32;96881.66;;;4.02;100.00
79242;BME280;68670;48.720;9.118;2023-12-20T03:26:57;96886.66;;;3.98;100.00
79242;BME280;68670;48.720;9.118;2023-12-20T03:29:23;96890.00;;;4.00;100.00
79242;BME280;68670;48.720;9.118;2023-12-20T03:31:48;96880.00;;;4.01;100.00
79242;BME280;68670;48.720;9.118;2023-12-20T03:34:15;96891.66;;;4.01;100.00
79242;BME280;68670;48.720;9.118;2023-12-20T03:36:45;96885.22;;;4.02;100.00
79242;BME280;68670;48.720;9.118;2023-12-20T03:39:13;96886.25;;;4.01;100.00
79242;BME280;68670;48.720;9.118;2023-12-20T03:41:40;96883.34;;;4.03;100.00
79242;BME280;68670;48.720;9.118;2023-12-20T03:44:05;96897.09;;;4.01;100.00
79242;BME280;68670;48.720;9.118;2023-12-20T03:46:31;96889.19;;;4.07;100.00
79242;BME280;68670;48.720;9.118;2023-12-20T03:48:59;96894.41;;;4.08;100.00
79242;BME280;68670;48.720;9.118;2023-12-20T03:51:24;96895.03;;;4.10;100.00
79242;BME280;68670;48.720;9.118;2023-12-20T03:53:49;96885.88;;;4.11;100.00
79242;BME280;68670;48.720;9.118;2023-12-20T03:56:14;96894.00;;;4.11;100.00
79242;BME280;68670;48.720;9.118;2023-12-20T03:58:40;96892.72;;;4.00;100.00
79242;BME280;68670;48.720;9.118;2023-12-20T04:01:10;96889.19;;;4.07;100.00
79242;BME280;68670;48.720;9.118;2023-12-20T04:03:39;96890.00;;;4.00;100.00
79242;BME280;68670;48.720;9.118;2023-12-20T04:06:07;96903.75;;;3.99;100.00
79242;BME280;68670;48.720;9.118;2023-12-20T04:08:32;96901.22;;;3.97;100.00
79242;BME280;68670;48.720;9.118;2023-12-20T04:10:58;96900.34;;;3.90;100.00
79242;BME280;68670;48.720;9.118;2023-12-20T04:13:25;96901.81;;;3.86;100.00
79242;BME280;68670;48.720;9.118;2023-12-20T04:15:51;96893.69;;;3.86;100.00
79242;BME280;68670;48.720;9.118;2023-12-20T04:18:18;96900.78;;;3.87;100.00
79242;BME280;68670;48.720;9.118;2023-12-20T04:20:43;96892.03;;;3.85;100.00
79242;BME280;68670;48.720;9.118;2023-12-20T04:23:08;96893.50;;;3.88;100.00
79242;BME280;68670;48.720;9.118;2023-12-20T04:25:35;96906.59;;;3.84;100.00
79242;BME280;68670;48.720;9.118;2023-12-20T04:28:00;96917.63;;;3.83;100.00
79242;BME280;68670;48.720;9.118;2023-12-20T04:30:25;96930.75;;;3.79;100.00
79242;BME280;68670;48.720;9.118;2023-12-20T04:32:50;96928.25;;;3.78;100.00
79242;BME280;68670;48.720;9.118;2023-12-20T04:35:18;96920.31;;;3.76;100.00
79242;BME280;68670;48.720;9.118;2023-12-20T04:37:43;96918.63;;;3.75;100.00
79242;BME280;68670;48.720;9.118;2023-12-20T04:40:09;96924.44;;;3.72;100.00
79242;BME280;68670;48.720;9.118;2023-12-20T04:42:37;96920.31;;;3.76;100.00
79242;BME280;68670;48.720;9.118;2023-12-20T04:45:02;96921.75;;;3.72;100.00
79242;BME280;68670;48.720;9.118;2023-12-20T04:47:28;96939.66;;;3.73;100.00
79242;BME280;68670;48.720;9.118;2023-12-20T04:49:53;96951.13;;;3.75;100.00
79242;BME280;68670;48.720;9.118;2023-12-20T04:52:19;96953.59;;;3.70;100.00
79242;BME280;68670;48.720;9.118;2023-12-20T04:54:49;96947.16;;;3.71;100.00
79242;BME280;68670;48.720;9.118;2023-12-20T04:57:17;96929.66;;;3.74;100.00
79242;BME280;68670;48.720;9.118;2023-12-20T04:59:42;96936.97;;;3.73;100.00
79242;BME280;68670;48.720;9.118;2023-12-20T05:02:07;96940.09;;;3.77;100.00
79242;BME280;68670;48.720;9.118;2023-12-20T05:04:33;96941.97;;;3.76;100.00
79242;BME280;68670;48.720;9.118;2023-12-20T05:07:02;96961.53;;;3.71;100.00
79242;BME280;68670;48.720;9.118;2023-12-20T05:09:30;96955.28;;;3.71;100.00
79242;BME280;68670;48.720;9.118;2023-12-20T05:11:57;96957.34;;;3.69;100.00
79242;BME280;68670;48.720;9.118;2023-12-20T05:14:22;96951.94;;;3.69;100.00
79242;BME280;68670;48.720;9.118;2023-12-20T05:16:48;96948.19;;;3.70;100.00
79242;BME280;68670;48.720;9.118;2023-12-20T05:19:15;96955.88;;;3.66;100.00
79242;BME280;68670;48.720;9.118;2023-12-20T05:21:43;96977.97;;;3.70;100.00
79242;BME280;68670;48.720;9.118;2023-12-20T05:24:08;96973.59;;;3.69;100.00
79242;BME280;68670;48.720;9.118;2023-12-20T05:26:34;96967.34;;;3.68;100.00
79242;BME280;68670;48.720;9.118;2023-12-20T05:28:59;96971.53;;;3.71;100.00
79242;BME280;68670;48.720;9.118;2023-12-20T05:31:24;96979.66;;;3.71;100.00
79242;BME280;68670;48.720;9.118;2023-12-20T05:33:52;96968.19;;;3.69;100.00
79242;BME280;68670;48.720;9.118;2023-12-20T05:36:18;96970.19;;;3.60;100.00
79242;BME280;68670;48.720;9.118;2023-12-20T05:38:43;96983.53;;;3.62;100.00
79242;BME280;68670;48.720;9.118;2023-12-20T05:41:11;96991.03;;;3.60;100.00
79242;BME280;68670;48.720;9.118;2023-12-20T05:43:36;96986.44;;;3.60;100.00
79242;BME280;68670;48.720;9.118;2023-12-20T05:46:01;96988.31;;;3.60;100.00
79242;BME280;68670;48.720;9.118;2023-12-20T05:48:27;96991.44;;;3.57;100.00
79242;BME280;68670;48.720;9.118;2023-12-20T05:50:55;96999.78;;;3.62;100.00
79242;BME280;68670;48.720;9.118;2023-12-20T05:53:20;97005.59;;;3.59;100.00
79242;BME280;68670;48.720;9.118;2023-12-20T05:55:45;97005.81;;;3.57;100.00
79242;BME280;68670;48.720;9.118;2023-12-20T05:58:11;97009.75;;;3.55;100.00
79242;BME280;68670;48.720;9.118;2023-12-20T06:00:38;97004.72;;;3.52;100.00
79242;BME280;68670;48.720;9.118;2023-12-20T06:03:04;97013.72;;;3.59;100.00
79242;BME280;68670;48.720;9.118;2023-12-20T06:05:31;97020.59;;;3.55;100.00
79242;BME280;68670;48.720;9.118;2023-12-20T06:07:56;97023.09;;;3.56;100.00
79242;BME280;68670;48.720;9.118;2023-12-20T06:10:29;97024.97;;;3.56;100.00
79242;BME280;68670;48.720;9.118;2023-12-20T06:12:54;97020.78;;;3.53;100.00
79242;BME280;68670;48.720;9.118;2023-12-20T06:15:23;97027.69;;;3.56;100.00
79242;BME280;68670;48.720;9.118;2023-12-20T06:17:48;97027.91;;;3.61;100.00
79242;BME280;68670;48.720;9.118;2023-12-20T06:20:16;97022.69;;;3.59;100.00
79242;BME280;68670;48.720;9.118;2023-12-20T06:22:41;97025.19;;;3.61;100.00
79242;BME280;68670;48.720;9.118;2023-12-20T06:25:07;97031.00;;;3.58;100.00
79242;BME280;68670;48.720;9.118;2023-12-20T06:27:34;97031.00;;;3.58;100.00
79242;BME280;68670;48.720;9.118;2023-12-20T06:30:02;97031.66;;;3.60;100.00
79242;BME280;68670;48.720;9.118;2023-12-20T06:32:30;97031.00;;;3.58;100.00
79242;BME280;68670;48.720;9.118;2023-12-20T06:34:58;97022.69;;;3.59;100.00
79242;BME280;68670;48.720;9.118;2023-12-20T06:37:23;97024.34;;;3.60;100.00
79242;BME280;68670;48.720;9.118;2023-12-20T06:39:49;97020.41;;;3.63;100.00
79242;BME280;68670;48.720;9.118;2023-12-20T06:42:14;97018.09;;;3.60;100.00
79242;BME280;68670;48.720;9.118;2023-12-20T06:44:39;97020.16;;;3.58;100.00
79242;BME280;68670;48.720;9.118;2023-12-20T06:47:05;97024.97;;;3.56;100.00
79242;BME280;68670;48.720;9.118;2023-12-20T06:49:30;97031.44;;;3.61;100.00
79242;BME280;68670;48.720;9.118;2023-12-20T06:51:57;97025.59;;;3.58;100.00
79242;BME280;68670;48.720;9.118;2023-12-20T06:54:30;97032.53;;;3.67;100.00
79242;BME280;68670;48.720;9.118;2023-12-20T06:56:55;97037.75;;;3.68;100.00
79242;BME280;68670;48.720;9.118;2023-12-20T06:59:23;97043.19;;;3.68;100.00
79242;BME280;68670;48.720;9.118;2023-12-20T07:01:53;97048.22;;;3.71;100.00
79242;BME280;68670;48.720;9.118;2023-12-20T07:04:19;97048.22;;;3.71;100.00
79242;BME280;68670;48.720;9.118;2023-12-20T07:06:52;97045.31;;;3.73;100.00
79242;BME280;68670;48.720;9.118;2023-12-20T07:09:21;97061.16;;;3.76;100.00
79242;BME280;68670;48.720;9.118;2023-12-20T07:11:47;97061.56;;;3.73;100.00
79242;BME280;68670;48.720;9.118;2023-12-20T07:14:16;97065.69;;;3.69;100.00
79242;BME280;68670;48.720;9.118;2023-12-20T07:16:44;97066.31;;;3.71;100.00
79242;BME280;68670;48.720;9.118;2023-12-20T07:19:09;97070.72;;;3.72;100.00
79242;BME280;68670;48.720;9.118;2023-12-20T07:21:37;97076.13;;;3.72;100.00
79242;BME280;68670;48.720;9.118;2023-12-20T07:24:02;97082.38;;;3.72;100.00
79242;BME280;68670;48.720;9.118;2023-12-20T07:26:30;97092.38;;;3.72;100.00
79242;BME280;68670;48.720;9.118;2023-12-20T07:28:57;97101.53;;;3.71;100.00
79242;BME280;68670;48.720;9.118;2023-12-20T07:31:27;97098.31;;;3.82;100.00
79242;BME280;68670;48.720;9.118;2023-12-20T07:33:52;97112.97;;;3.94;100.00
79242;BME280;68670;48.720;9.118;2023-12-20T07:36:20;97115.88;;;3.93;100.00
79242;BME280;68670;48.720;9.118;2023-12-20T07:38:46;97120.47;;;3.92;100.00
79242;BME280;68670;48.720;9.118;2023-12-20T07:41:11;97122.59;;;3.97;100.00
79242;BME280;68670;48.720;9.118;2023-12-20T07:43:37;97122.16;;;3.93;100.00
79242;BME280;68670;48.720;9.118;2023-12-20T07:46:06;97121.28;;;3.86;100.00
79242;BME280;68670;48.720;9.118;2023-12-20T07:48:33;97117.91;;;3.84;100.00
79242;BME280;68670;48.720;9.118;2023-12-20T07:51:01;97126.81;;;3.78;100.00
79242;BME280;68670;48.720;9.118;2023-12-20T07:53:26;97125.34;;;3.76;100.00
79242;BME280;68670;48.720;9.118;2023-12-20T07:55:52;97108.63;;;3.72;100.00
79242;BME280;68670;48.720;9.118;2023-12-20T07:58:18;97125.28;;;3.69;100.00
79242;BME280;68670;48.720;9.118;2023-12-20T08:00:45;97120.44;;;3.64;100.00
79242;BME280;68670;48.720;9.118;2023-12-20T08:03:13;97123.97;;;3.65;100.00
79242;BME280;68670;48.720;9.118;2023-12-20T08:05:38;97115.59;;;3.60;100.00
79242;BME280;68670;48.720;9.118;2023-12-20T08:08:09;97126.03;;;3.63;100.00
79242;BME280;68670;48.720;9.118;2023-12-20T08:10:35;97128.50;;;3.58;100.00
79242;BME280;68670;48.720;9.118;2023-12-20T08:13:03;97125.16;;;3.56;100.00
79242;BME280;68670;48.720;9.118;2023-12-20T08:15:28;97130.59;;;3.56;100.00
79242;BME280;68670;48.720;9.118;2023-12-20T08:17:57;97130.59;;;3.56;100.00
79242;BME280;68670;48.720;9.118;2023-12-20T08:20:23;97128.91;;;3.55;100.00
79242;BME280;68670;48.720;9.118;2023-12-20T08:22:50;97125.16;;;3.56;100.00
79242;BME280;68670;48.720;9.118;2023-12-20T08:25:16;97133.47;;;3.54;100.00
79242;BME280;68670;48.720;9.118;2023-12-20T08:27:43;97134.31;;;3.55;100.00
79242;BME280;68670;48.720;9.118;2023-12-20T08:30:11;97139.94;;;3.53;100.00
79242;BME280;68670;48.720;9.118;2023-12-20T08:32:37;97142.81;;;3.52;100.00
79242;BME280;68670;48.720;9.118;2023-12-20T08:35:03;97153.47;;;3.53;100.00
79242;BME280;68670;48.720;9.118;2023-12-20T08:37:28;97153.00;;;3.50;100.00
79242;BME280;68670;48.720;9.118;2023-12-20T08:39:55;97145.53;;;3.52;100.00
79242;BME280;68670;48.720;9.118;2023-12-20T08:42:22;97153.84;;;3.50;100.00
79242;BME280;68670;48.720;9.118;2023-12-20T08:44:49;97153.00;;;3.50;100.00
79242;BME280;68670;48.720;9.118;2023-12-20T08:47:15;97160.47;;;3.48;100.00
79242;BME280;68670;48.720;9.118;2023-12-20T08:49:41;97171.19;;;3.56;100.00
79242;BME280;68670;48.720;9.118;2023-12-20T08:52:06;97168.50;;;3.56;100.00
79242;BME280;68670;48.720;9.118;2023-12-20T08:54:36;97182.16;;;3.48;100.00
79242;BME280;68670;48.720;9.118;2023-12-20T08:57:06;97187.94;;;3.45;100.00
79242;BME280;68670;48.720;9.118;2023-12-20T08:59:32;97185.44;;;3.43;100.00
79242;BME280;68670;48.720;9.118;2023-12-20T09:01:59;97189.34;;;3.41;100.00
79242;BME280;68670;48.720;9.118;2023-12-20T09:04:27;97171.63;;;3.38;100.00
79242;BME280;68670;48.720;9.118;2023-12-20T09:06:55;97170.97;;;3.36;100.00
79242;BME280;68670;48.720;9.118;2023-12-20T09:09:20;97167.16;;;3.30;100.00
79242;BME280;68670;48.720;9.118;2023-12-20T09:11:47;97161.75;;;3.30;100.00
79242;BME280;68670;48.720;9.118;2023-12-20T09:14:16;97167.53;;;3.27;100.00
79242;BME280;68670;48.720;9.118;2023-12-20T09:16:44;97169.84;;;3.30;100.00
79242;BME280;68670;48.720;9.118;2023-12-20T09:19:14;97172.06;;;3.42;100.00
79242;BME280;68670;48.720;9.118;2023-12-20T09:21:41;97169.34;;;3.56;99.01
79242;BME280;68670;48.720;9.118;2023-12-20T09:24:09;97180.22;;;3.63;97.43
79242;BME280;68670;48.720;9.118;2023-12-20T09:26:34;97169.91;;;3.73;95.91
79242;BME280;68670;48.720;9.118;2023-12-20T09:29:02;97171.47;;;3.82;96.35
79242;BME280;68670;48.720;9.118;2023-12-20T09:31:27;97166.88;;;3.83;95.98
79242;BME280;68670;48.720;9.118;2023-12-20T09:33:52;97170.03;;;3.86;95.86
79242;BME280;68670;48.720;9.118;2023-12-20T09:36:18;97176.72;;;3.90;93.68
79242;BME280;68670;48.720;9.118;2023-12-20T09:38:43;97175.31;;;3.94;92.08
79242;BME280;68670;48.720;9.118;2023-12-20T09:41:08;97178.16;;;4.08;94.63
79242;BME280;68670;48.720;9.118;2023-12-20T09:43:37;97188.66;;;4.17;93.52
79242;BME280;68670;48.720;9.118;2023-12-20T09:46:06;97189.34;;;4.26;92.63
79242;BME280;68670;48.720;9.118;2023-12-20T09:48:32;97194.16;;;4.30;91.40
79242;BME280;68670;48.720;9.118;2023-12-20T09:51:00;97191.78;;;4.42;90.38
79242;BME280;68670;48.720;9.118;2023-12-20T09:53:26;97193.06;;;4.46;87.82
79242;BME280;68670;48.720;9.118;2023-12-20T09:55:58;97195.97;;;4.45;87.83
79242;BME280;68670;48.720;9.118;2023-12-20T09:58:25;97187.03;;;4.51;86.44
79242;BME280;68670;48.720;9.118;2023-12-20T10:00:51;97188.94;;;4.57;87.18
79242;BME280;68670;48.720;9.118;2023-12-20T10:03:24;97190.16;;;4.48;85.76
79242;BME280;68670;48.720;9.118;2023-12-20T10:05:53;97183.09;;;4.53;84.45
79242;BME280;68670;48.720;9.118;2023-12-20T10:08:21;97189.31;;;4.47;83.30
79242;BME280;68670;48.720;9.118;2023-12-20T10:10:47;97184.91;;;4.46;82.74
79242;BME280;68670;48.720;9.118;2023-12-20T10:13:12;97190.59;;;4.51;83.11
79242;BME280;68670;48.720;9.118;2023-12-20T10:15:38;97187.72;;;4.59;82.54
79242;BME280;68670;48.720;9.118;2023-12-20T10:18:04;97195.94;;;4.72;82.83
79242;BME280;68670;48.720;9.118;2023-12-20T10:20:30;97194.34;;;4.50;81.38
79242;BME280;68670;48.720;9.118;2023-12-20T10:22:59;97182.22;;;4.46;82.42
79242;BME280;68670;48.720;9.118;2023-12-20T10:25:25;97172.16;;;4.40;83.48
79242;BME280;68670;48.720;9.118;2023-12-20T10:28:08;97172.94;;;4.34;84.06
79242;BME280;68670;48.720;9.118;2023-12-20T10:30:37;97166.03;;;4.31;84.31
79242;BME280;68670;48.720;9.118;2023-12-20T10:33:02;97154.34;;;4.31;85.45
79242;BME280;68670;48.720;9.118;2023-12-20T10:35:27;97157.88;;;4.31;85.49
79242;BME280;68670;48.720;9.118;2023-12-20T10:37:58;97149.31;;;4.28;84.07
79242;BME280;68670;48.720;9.118;2023-12-20T10:40:31;97145.56;;;4.29;86.31
79242;BME280;68670;48.720;9.118;2023-12-20T10:42:59;97146.22;;;4.31;86.20
79242;BME280;68670;48.720;9.118;2023-12-20T10:45:31;97150.16;;;4.28;87.16
79242;BME280;68670;48.720;9.118;2023-12-20T10:47:59;97152.91;;;4.35;86.20
79242;BME280;68670;48.720;9.118;2023-12-20T10:50:29;97160.41;;;4.33;83.02
79242;BME280;68670;48.720;9.118;2023-12-20T10:52:56;97161.69;;;4.37;83.50
79242;BME280;68670;48.720;9.118;2023-12-20T10:55:23;97160.91;;;4.43;83.26
79242;BME280;68670;48.720;9.118;2023-12-20T10:57:51;97159.44;;;4.41;83.15
79242;BME280;68670;48.720;9.118;2023-12-20T11:00:18;97148.31;;;4.35;83.16
79242;BME280;68670;48.720;9.118;2023-12-20T11:02:44;97147.53;;;4.42;83.10
79242;BME280;68670;48.720;9.118;2023-12-20T11:05:27;97148.31;;;4.35;82.53
79242;BME280;68670;48.720;9.118;2023-12-20T11:08:02;97146.22;;;4.31;82.35
79242;BME280;68670;48.720;9.118;2023-12-20T11:13:17;97147.88;;;4.32;82.16
79242;BME280;68670;48.720;9.118;2023-12-20T11:15:45;97151.50;;;4.39;83.15
79242;BME280;68670;48.720;9.118;2023-12-20T11:18:12;97146.47;;;4.36;80.62
79242;BME280;68670;48.720;9.118;2023-12-20T11:20:41;97141.63;;;4.31;78.32
79242;BME280;68670;48.720;9.118;2023-12-20T11:23:09;97146.59;;;4.28;79.09
79242;BME280;68670;48.720;9.118;2023-12-20T11:25:55;97139.69;;;4.25;76.64
79242;BME280;68670;48.720;9.118;2023-12-20T11:28:24;97136.16;;;4.25;77.88
79242;BME280;68670;48.720;9.118;2023-12-20T11:30:52;97135.75;;;4.28;79.07
79242;BME280;68670;48.720;9.118;2023-12-20T11:33:25;97147.00;;;4.25;77.95
79242;BME280;68670;48.720;9.118;2023-12-20T11:35:55;97137.44;;;4.29;78.34
79242;BME280;68670;48.720;9.118;2023-12-20T11:38:20;97133.69;;;4.30;77.50
79242;BME280;68670;48.720;9.118;2023-12-20T11:40:48;97135.75;;;4.28;77.49
79242;BME280;68670;48.720;9.118;2023-12-20T11:43:29;97137.81;;;4.26;77.30
79242;BME280;68670;48.720;9.118;2023-12-20T11:46:02;97132.41;;;4.26;76.92
79242;BME280;68670;48.720;9.118;2023-12-20T11:48:33;97135.28;;;4.18;75.59
79242;BME280;68670;48.720;9.118;2023-12-20T11:51:02;97134.91;;;4.21;75.06
79242;BME280;68670;48.720;9.118;2023-12-20T11:53:29;97139.69;;;4.25;76.03
79242;BME280;68670;48.720;9.118;2023-12-20T11:55:58;97132.78;;;4.23;76.72
79242;BME280;68670;48.720;9.118;2023-12-20T11:58:23;97126.56;;;4.22;75.85
79242;BME280;68670;48.720;9.118;2023-12-20T12:00:52;97129.22;;;4.16;75.92
79242;BME280;68670;48.720;9.118;2023-12-20T12:03:17;97129.22;;;4.16;75.06
79242;BME280;68670;48.720;9.118;2023-12-20T12:05:43;97121.47;;;4.13;76.13
79242;BME280;68670;48.720;9.118;2023-12-20T12:08:08;97121.09;;;4.16;77.09
79242;BME280;68670;48.720;9.118;2023-12-20T12:10:38;97121.88;;;4.10;76.43
79242;BME280;68670;48.720;9.118;2023-12-20T12:13:06;97121.47;;;4.13;78.56
79242;BME280;68670;48.720;9.118;2023-12-20T12:15:31;97121.09;;;4.16;76.46
79242;BME280;68670;48.720;9.118;2023-12-20T12:17:59;97115.63;;;4.09;75.48
79242;BME280;68670;48.720;9.118;2023-12-20T12:20:25;97114.03;;;4.21;75.13
79242;BME280;68670;48.720;9.118;2023-12-20T12:23:07;97109.03;;;4.25;75.82
79242;BME280;68670;48.720;9.118;2023-12-20T12:25:35;97103.66;;;4.31;76.07
79242;BME280;68670;48.720;9.118;2023-12-20T12:28:03;97095.34;;;4.33;73.51
79242;BME280;68670;48.720;9.118;2023-12-20T12:30:29;97092.88;;;4.38;73.73
79242;BME280;68670;48.720;9.118;2023-12-20T12:32:57;97099.56;;;4.42;74.50
79242;BME280;68670;48.720;9.118;2023-12-20T12:35:23;97090.16;;;4.38;73.77
79242;BME280;68670;48.720;9.118;2023-12-20T12:37:48;97090.75;;;4.33;74.11
79242;BME280;68670;48.720;9.118;2023-12-20T12:40:17;97095.81;;;4.43;75.20
79242;BME280;68670;48.720;9.118;2023-12-20T12:42:47;97093.78;;;4.52;75.37
79242;BME280;68670;48.720;9.118;2023-12-20T12:45:15;97085.47;;;4.53;75.01
79242;BME280;68670;48.720;9.118;2023-12-20T12:47:40;97089.59;;;4.49;73.95
79242;BME280;68670;48.720;9.118;2023-12-20T12:50:06;97092.56;;;4.54;74.00
79242;BME280;68670;48.720;9.118;2023-12-20T12:52:34;97088.56;;;4.50;74.51
79242;BME280;68670;48.720;9.118;2023-12-20T12:55:00;97095.03;;;4.49;75.23
79242;BME280;68670;48.720;9.118;2023-12-20T12:57:25;97089.59;;;4.49;75.42
79242;BME280;68670;48.720;9.118;2023-12-20T12:59:55;97088.31;;;4.45;75.82
79242;BME280;68670;48.720;9.118;2023-12-20T13:02:21;97101.50;;;4.48;74.31
79242;BME280;68670;48.720;9.118;2023-12-20T13:04:46;97092.97;;;4.51;74.87
79242;BME280;68670;48.720;9.118;2023-12-20T13:07:12;97094.84;;;4.51;75.08